createdAt,value
2019-03-20T07:32:49.957Z,94.10
2019-03-20T07:40:50.391Z,94.10
2019-03-20T07:43:27.042Z,94.50
2019-03-20T07:45:57.556Z,94.40
2019-03-20T07:48:32.055Z,94.50
2019-03-20T07:51:06.252Z,94.90
2019-03-20T07:53:41.389Z,94.70
2019-03-20T07:56:13.181Z,94.50
2019-03-20T07:58:45.677Z,94.50
2019-03-20T08:01:29.509Z,94.60
2019-03-20T08:04:21.917Z,94.40
2019-03-20T08:06:55.956Z,94.20
2019-03-20T08:09:37.022Z,94.60
2019-03-20T08:12:35.384Z,94.50
2019-03-20T08:15:15.257Z,94.50
2019-03-20T08:17:51.468Z,94.30
2019-03-20T08:20:29.902Z,94.30
2019-03-20T08:23:03.170Z,94.40
2019-03-20T08:25:34.110Z,94.70
2019-03-20T08:28:11.924Z,94.50
2019-03-20T08:42:52.441Z,94.70
2019-03-20T08:45:32.546Z,94.80
2019-03-20T08:48:28.179Z,94.40
2019-03-20T09:28:07.688Z,93.50
2019-03-20T09:30:37.613Z,93.40
2019-03-20T09:33:07.484Z,93.20
2019-03-20T09:35:37.332Z,93.00
2019-03-20T09:38:08.093Z,92.70
2019-03-20T09:40:38.070Z,92.70
2019-03-20T09:43:17.548Z,92.20
2019-03-20T09:45:43.213Z,92.40
2019-03-20T09:48:50.347Z,92.30
2019-03-20T09:54:07.669Z,92.30
2019-03-20T09:56:40.395Z,92.00
2019-03-20T09:59:13.749Z,92.10
2019-03-20T10:01:44.802Z,92.10
2019-03-20T10:04:19.364Z,92.10
2019-03-20T10:07:04.055Z,92.10
2019-03-20T10:09:38.417Z,92.00
2019-03-20T10:12:08.780Z,91.90
2019-03-20T10:14:38.698Z,91.90
2019-03-20T10:17:09.495Z,91.80
2019-03-20T10:19:39.393Z,91.60
2019-03-20T10:22:10.054Z,91.60
2019-03-20T10:24:47.197Z,91.80
2019-03-20T10:27:17.048Z,91.80
2019-03-20T10:29:48.736Z,91.70
2019-03-20T10:32:24.610Z,91.50
2019-03-20T10:34:54.997Z,91.70
2019-03-20T10:37:31.402Z,91.70
2019-03-20T10:40:10.123Z,91.70
2019-03-20T10:42:41.147Z,91.60
2019-03-20T10:45:14.917Z,91.60
2019-03-20T10:47:45.752Z,91.60
2019-03-20T10:50:25.533Z,91.60
2019-03-20T10:53:03.309Z,91.40
2019-03-20T10:55:28.659Z,91.50
2019-03-20T10:58:00.814Z,91.50
2019-03-20T11:00:31.760Z,91.40
2019-03-20T11:03:01.686Z,91.40
2019-03-20T11:05:34.859Z,91.40
2019-03-20T11:08:18.153Z,91.30
2019-03-20T11:10:52.657Z,91.30
2019-03-20T11:16:27.667Z,91.30
2019-03-20T11:19:00.455Z,91.30
2019-03-20T11:21:33.760Z,91.10
2019-03-20T11:24:09.456Z,91.20
2019-03-20T11:26:42.088Z,91.00
2019-03-20T11:29:21.326Z,90.80
2019-03-20T11:32:01.707Z,90.80
2019-03-20T11:59:10.240Z,90.60
